WetterOnline ( http://www.wetteronline.de )

Wetter aktuell Neustadt i.H.

Aktuelles Wetter: Pelzerhaken/Neustadt i.H. (2m)

6-stündlich | Neueste Meldungen
Ortszeit Temperatur Wetter
Di, 16.10. 8:00 11.1° C bewölkt
Di, 16.10. 2:00 8.7° C fast wolkenlos
Mo, 15.10. 20:00 12.4° C wolkenlos
Mo, 15.10. 14:00 19.4° C wolkenlos
Mo, 15.10. 8:00 7.7° C wolkenlos
Mo, 15.10. 2:00 9.4° C wolkenlos
So, 14.10. 20:00 14.7° C wolkenlos
So, 14.10. 14:00 19.9° C wolkenlos
Ortszeit Temperatur Wetter
Di, 16.10. 10:00 13.8° C leicht bewölkt
Di, 16.10. 9:50 13.8° C wolkig
Di, 16.10. 9:40 13.5° C leicht bewölkt
Di, 16.10. 9:30 13.5° C wolkenlos
Di, 16.10. 9:20 13.5° C wolkenlos
Di, 16.10. 9:10 13.3° C wolkenlos
Di, 16.10. 9:00 12.5° C wolkenlos
Di, 16.10. 8:30 11.2° C leicht bewölkt
Di, 16.10. 8:00 11.1° C bewölkt
Di, 16.10. 7:30 10.8° C wolkig
Di, 16.10. 7:00 10.3° C leicht bewölkt
Ortszeit Relative Feuchte Sichtweite
Di, 16.10. 8:00 92% 7 km
Di, 16.10. 2:00 96% 5.0 km
Mo, 15.10. 20:00 88% 9 km
Mo, 15.10. 14:00 51% 20 km
Mo, 15.10. 8:00 96% 2.6 km
Mo, 15.10. 2:00 96% 9 km
So, 14.10. 20:00 74% 18 km
So, 14.10. 14:00 56% 14 km
Ortszeit Relative Feuchte Sichtweite
Di, 16.10. 10:00 83% 11 km
Di, 16.10. 9:50 83% -
Di, 16.10. 9:40 84% -
Di, 16.10. 9:30 85% 9 km
Di, 16.10. 9:20 85% -
Di, 16.10. 9:10 85% -
Di, 16.10. 9:00 88% 9 km
Di, 16.10. 8:30 95% 5.0 km
Di, 16.10. 8:00 92% 7 km
Di, 16.10. 7:30 95% 9 km
Di, 16.10. 7:00 96% 3.9 km
Ortszeit Niederschlagsmenge Niederschlagsart
Di, 16.10. 8:00 0.0 l/m2 in 12 Std. -
Di, 16.10. 2:00 0.0 l/m2 in 6 Std. -
Mo, 15.10. 20:00 0.0 l/m2 in 12 Std. -
Mo, 15.10. 14:00 0.0 l/m2 in 6 Std. -
Mo, 15.10. 8:00 0.0 l/m2 in 12 Std. -
Mo, 15.10. 2:00 0.0 l/m2 in 6 Std. -
So, 14.10. 20:00 0.0 l/m2 in 12 Std. -
So, 14.10. 14:00 0.0 l/m2 in 6 Std. -
Ortszeit Niederschlagsmenge Niederschlagsart
Di, 16.10. 10:00 0.0 l/m2 in 1 Std. -
Di, 16.10. 9:50 keine Meldung -
Di, 16.10. 9:40 keine Meldung -
Di, 16.10. 9:30 0.0 l/m2 in 1 Std. -
Di, 16.10. 9:20 keine Meldung -
Di, 16.10. 9:10 keine Meldung -
Di, 16.10. 9:00 0.0 l/m2 in 1 Std. -
Di, 16.10. 8:30 0.0 l/m2 in 1 Std. -
Di, 16.10. 8:00 0.0 l/m2 in 1 Std. -
Di, 16.10. 7:30 0.0 l/m2 in 1 Std. -
Di, 16.10. 7:00 0.0 l/m2 in 1 Std. -
Ortszeit Stärke Spitze Richtung
km/h Bft. km/h Grad Sektor
Di, 16.10. 8:00 7 2 11 220° SW
Di, 16.10. 2:00 7 2 11 290° W
Mo, 15.10. 20:00 7 2 14 80° O
Mo, 15.10. 14:00 4 1 22 140° SO
Mo, 15.10. 8:00 4 1 18 170° S
Mo, 15.10. 2:00 0 0 18 - -
So, 14.10. 20:00 9 2 28 180° S
So, 14.10. 14:00 7 2 29 160° S
Ortszeit Stärke Spitze Richtung
km/h Bft. km/h Grad Sektor
Di, 16.10. 10:00 7 2 11 220° SW
Di, 16.10. 9:50 7 2 - 220° SW
Di, 16.10. 9:40 7 2 - 230° SW
Di, 16.10. 9:30 7 2 11 210° SW
Di, 16.10. 9:20 7 2 - 210° SW
Di, 16.10. 9:10 7 2 - 220° SW
Di, 16.10. 9:00 7 2 7 230° SW
Di, 16.10. 8:30 4 1 7 250° W
Di, 16.10. 8:00 7 2 11 220° SW
Di, 16.10. 7:30 7 2 7 220° SW
Di, 16.10. 7:00 7 2 11 220° SW
Ortszeit Untergrenze Bedeckung Gattung
total tief tief mittel hoch
Di, 16.10. 8:00 3000 m 7/8 7/8 - - -
Di, 16.10. 2:00 9000 m 1/8 0/8 - - -
Mo, 15.10. 20:00 - 0/8 0/8 - - -
Mo, 15.10. 14:00 - 0/8 0/8 - - -
Mo, 15.10. 8:00 - 0/8 0/8 - - -
Mo, 15.10. 2:00 - 0/8 0/8 - - -
So, 14.10. 20:00 - 0/8 0/8 - - -
So, 14.10. 14:00 - 0/8 0/8 - - -
Ortszeit Bedeckungsgrad in Achtel und Wolkenuntergrenze
Di, 16.10. 10:00 7(9000m)
Di, 16.10. 9:50 7(9000m)
Di, 16.10. 9:40 6(9000m)
Di, 16.10. 9:30 3(9000m)
Di, 16.10. 9:20 keine Wolken
Di, 16.10. 9:10 keine Wolken
Di, 16.10. 9:00 keine Wolken
Di, 16.10. 8:30 3(3000m)
Di, 16.10. 8:00 7(3000m)
Di, 16.10. 7:30 5(3000m)
Di, 16.10. 7:00 2(2700m)
Ortszeit Luftdruck NN (hPa) Tendenz (hPa in 3 Std.)
Di, 16.10. 8:00 1017 + 0,9
Di, 16.10. 2:00 1016 + 0,5
Mo, 15.10. 20:00 1015 + 1,1
Mo, 15.10. 14:00 1014 - 0,2
Mo, 15.10. 8:00 1013 + 0,7
Mo, 15.10. 2:00 1012 + 0,1
So, 14.10. 20:00 1012 + 0,4
So, 14.10. 14:00 1013 - 1,2
Ortszeit Luftdruck NN (hPa) Tendenz (hPa in 3 Std.)
Di, 16.10. 10:00 1018 + 1,5
Di, 16.10. 9:50 1018 keine Meldung
Di, 16.10. 9:40 1018 keine Meldung
Di, 16.10. 9:30 1018 + 1,3
Di, 16.10. 9:20 1018 keine Meldung
Di, 16.10. 9:10 1018 keine Meldung
Di, 16.10. 9:00 1018 + 1,1
Di, 16.10. 8:30 1017 + 0,9
Di, 16.10. 8:00 1017 + 0,9
Di, 16.10. 7:30 1017 + 0,4
Di, 16.10. 7:00 1017 + 0,5
Ortszeit Schneehöhe (cm)
Di, 16.10. 8:00 0
Di, 16.10. 2:00 0
Mo, 15.10. 20:00 0
Mo, 15.10. 14:00 0
Mo, 15.10. 8:00 0
Mo, 15.10. 2:00 0
So, 14.10. 20:00 0
So, 14.10. 14:00 0
Ortszeit Schneehöhe (cm)
Di, 16.10. 10:00 0
Di, 16.10. 9:50 0
Di, 16.10. 9:40 0
Di, 16.10. 9:30 0
Di, 16.10. 9:20 0
Di, 16.10. 9:10 0
Di, 16.10. 9:00 0
Di, 16.10. 8:30 0
Di, 16.10. 8:00 0
Di, 16.10. 7:30 0
Di, 16.10. 7:00 0
Link zu dieser Seite / Seite empfehlen

Das Wetter in ...